F/V Harvestor — WDC8229 — position and weather

sailwx.info

Track history (hours):
 
Tides and Currents Weather Stations Pressure Air Temp Water Temp Dewpoint Dewpoint Depression Visibility Wind Speed Wind Dir Waves Ship Positions

F/V Harvestor

Owner: F/V HARVESTOR INC., EDMONDS, WA. More information available from US FCC via Universal Licensing System and Coast Guard Vessel Documentation Center.

Last reported at 2014-Oct-20 12:33 UTC. Time now 2014-Oct-20 13:16 UTC.
Position N 47°38' W 122°23'.

Length 40 m.

Type: Fishing. MMSI: 367083650.

Date/timePositionNaut miles runAvg speedWind from/ knotsBaromVisibWave heightAir tempDewpointWater temp
2014-Oct-20 12:33N 47°38' W 122°23'0 0.0
2014-Oct-20 11:33N 47°38' W 122°23'0 0.0
2014-Oct-20 10:33N 47°38' W 122°23'0 0.0
2014-Oct-20 09:33N 47°38' W 122°23'0 0.0
2014-Oct-20 08:33N 47°38' W 122°23'0 0.0
2014-Oct-20 08:21N 47°38' W 122°23'0 0.0
2014-Oct-20 07:33N 47°38' W 122°23'0 0.0
2014-Oct-20 07:19N 47°38' W 122°23'0 0.0
2014-Oct-20 06:28N 47°38' W 122°23'0 0.0
2014-Oct-20 06:28N 47°38' W 122°23'0 0.0
2014-Oct-20 05:58N 47°38' W 122°23'0 0.0
2014-Oct-20 05:33N 47°38' W 122°23'0 0.0
2014-Oct-20 04:33N 47°38' W 122°23'0 0.0
2014-Oct-20 04:33N 47°38' W 122°23'0 0.0
2014-Oct-20 03:33N 47°38' W 122°23'0 0.0
2014-Oct-20 03:33N 47°38' W 122°23'0 0.0
2014-Oct-20 02:33N 47°38' W 122°23'0 0.0
2014-Oct-20 02:33N 47°38' W 122°23'0 0.0
2014-Oct-20 01:33N 47°38' W 122°23'0 0.0
2014-Oct-20 01:33N 47°38' W 122°23'0 0.0
2014-Oct-20 00:33N 47°38' W 122°23'0 0.0
2014-Oct-20 00:33N 47°38' W 122°23'0 0.0
2014-Oct-19 23:33N 47°38' W 122°23'0 0.0
2014-Oct-19 23:33N 47°38' W 122°23'4 3.5
2014-Oct-19 22:33N 47°35' W 122°27'0 7.5
2014-Oct-19 22:33N 47°35' W 122°27'4 4.1
2014-Oct-19 21:33N 47°34' W 122°33'0 0.0
2014-Oct-19 21:32N 47°34' W 122°33'0 0.0
2014-Oct-19 20:33N 47°34' W 122°33'0 0.3
2014-Oct-19 20:32N 47°34' W 122°33'0 0.0
2014-Oct-19 19:33N 47°34' W 122°33'0 0.0
2014-Oct-19 19:30N 47°34' W 122°33'0 0.0
2014-Oct-19 18:33N 47°34' W 122°33'0 0.0
2014-Oct-19 18:29N 47°34' W 122°33'0 0.0
2014-Oct-19 17:33N 47°34' W 122°33'0 0.0
2014-Oct-19 17:18N 47°34' W 122°33'0 0.0
2014-Oct-19 16:33N 47°34' W 122°33'0 0.0
2014-Oct-19 16:31N 47°34' W 122°33'0 0.0
2014-Oct-19 15:33N 47°34' W 122°33'0 0.0
2014-Oct-19 15:31N 47°34' W 122°33'0 0.0
2014-Oct-19 14:33N 47°34' W 122°33'0 0.2
2014-Oct-19 14:31N 47°34' W 122°33'6 5.9
2014-Oct-19 13:33N 47°37' W 122°25'0 7.3
2014-Oct-19 13:31N 47°37' W 122°25'1 1.5
2014-Oct-19 12:33N 47°38' W 122°23'0 0.0
2014-Oct-19 12:31N 47°38' W 122°23'0 0.0
2014-Oct-19 11:33N 47°38' W 122°23'0 0.0
2014-Oct-19 11:31N 47°38' W 122°23'0 0.0
2014-Oct-19 10:33N 47°38' W 122°23'0 0.1
2014-Oct-19 10:31N 47°38' W 122°23'0 0.0
2014-Oct-19 09:33N 47°38' W 122°23'0 0.0
2014-Oct-19 09:31N 47°38' W 122°23'0 0.0
2014-Oct-19 08:33N 47°38' W 122°23'0 0.0
2014-Oct-19 08:31N 47°38' W 122°23'0 0.0
2014-Oct-19 07:33N 47°38' W 122°23'0 0.0
2014-Oct-19 07:30N 47°38' W 122°23'0 0.0
2014-Oct-19 06:33N 47°38' W 122°23'0 0.0
2014-Oct-19 06:30N 47°38' W 122°23'0 0.0
2014-Oct-19 06:05N 47°38' W 122°23'0 0.0
2014-Oct-19 05:33N 47°38' W 122°23'0 0.0
2014-Oct-19 04:33N 47°38' W 122°23'0 0.1
2014-Oct-19 04:30N 47°38' W 122°23'0 0.0
2014-Oct-19 03:33N 47°38' W 122°23'0 0.1
2014-Oct-19 03:30N 47°38' W 122°23'0 0.0
2014-Oct-19 02:33N 47°38' W 122°23'0 0.1
2014-Oct-19 02:30N 47°38' W 122°23'0 0.0
2014-Oct-19 01:33N 47°38' W 122°23'0 0.1
2014-Oct-19 01:30N 47°38' W 122°23'0 0.0
2014-Oct-19 00:33N 47°38' W 122°23'0 0.1
2014-Oct-19 00:29N 47°38' W 122°23'0 0.0
2014-Oct-18 23:33N 47°38' W 122°23'0 0.1
2014-Oct-18 23:30N 47°38' W 122°23'0 0.0
2014-Oct-18 22:33N 47°38' W 122°23'0 0.0
2014-Oct-18 22:29N 47°38' W 122°23'0 0.0
2014-Oct-18 21:33N 47°38' W 122°23'0 0.0
2014-Oct-18 21:29N 47°38' W 122°23'0 0.0
2014-Oct-18 20:33N 47°38' W 122°23'0 0.0
2014-Oct-18 20:29N 47°38' W 122°23'0 0.0
2014-Oct-18 19:33N 47°38' W 122°23'0 0.2
2014-Oct-18 19:29N 47°38' W 122°23'0 0.0
2014-Oct-18 18:33N 47°38' W 122°23'0 0.1
2014-Oct-18 18:28N 47°38' W 122°23'0 0.0
2014-Oct-18 17:33N 47°38' W 122°23'0 0.1
2014-Oct-18 17:28N 47°38' W 122°23'0 0.0
2014-Oct-18 16:33N 47°38' W 122°23'0 0.0
2014-Oct-18 16:28N 47°38' W 122°23'0 0.0
2014-Oct-18 15:33N 47°38' W 122°23'0 0.0
2014-Oct-18 15:29N 47°38' W 122°23'0 0.0
2014-Oct-18 14:33N 47°38' W 122°23'0 0.1
2014-Oct-18 14:29N 47°38' W 122°23'0 0.0
2014-Oct-18 13:33N 47°38' W 122°23'0 0.0
2014-Oct-18 13:33N 47°38' W 122°23'0 0.0
2014-Oct-18 12:33N 47°38' W 122°23'0 0.0
2014-Oct-18 12:33N 47°38' W 122°23'0 0.0
2014-Oct-18 11:33N 47°38' W 122°23'0 0.0
2014-Oct-18 11:33N 47°38' W 122°23'0 0.0
2014-Oct-18 10:33N 47°38' W 122°23'0 0.0
2014-Oct-18 10:23N 47°38' W 122°23'0 0.0
2014-Oct-18 09:33N 47°38' W 122°23'0 0.0
2014-Oct-18 09:32N 47°38' W 122°23'0 0.0
2014-Oct-18 08:33N 47°38' W 122°23'0 0.3
2014-Oct-18 08:32N 47°38' W 122°23'0 0.0
2014-Oct-18 07:33N 47°38' W 122°23'0 0.3
2014-Oct-18 07:32N 47°38' W 122°23'0 0.0
2014-Oct-18 06:33N 47°38' W 122°23'0 0.2
2014-Oct-18 06:32N 47°38' W 122°23'0 0.0
2014-Oct-18 05:57N 47°38' W 122°23'0 0.0
2014-Oct-18 05:33N 47°38' W 122°23'0 0.0
2014-Oct-18 04:33N 47°38' W 122°23'0 0.0
2014-Oct-18 04:32N 47°38' W 122°23'0 0.0
2014-Oct-18 03:33N 47°38' W 122°23'0 0.2
2014-Oct-18 03:32N 47°38' W 122°23'0 0.0
2014-Oct-18 02:33N 47°38' W 122°23'0 0.0
2014-Oct-18 02:32N 47°38' W 122°23'0 0.0
2014-Oct-18 01:33N 47°38' W 122°23'0 0.0
2014-Oct-18 01:32N 47°38' W 122°23'0 0.0
2014-Oct-18 00:33N 47°38' W 122°23'0 0.2
2014-Oct-18 00:32N 47°38' W 122°23'0 0.0
2014-Oct-17 23:33N 47°38' W 122°23'0 0.2
2014-Oct-17 23:32N 47°38' W 122°23'0 0.0
2014-Oct-17 22:33N 47°38' W 122°23'0 0.2
2014-Oct-17 22:31N 47°38' W 122°23'0 0.0
2014-Oct-17 21:33N 47°38' W 122°23'0 0.0
2014-Oct-17 21:31N 47°38' W 122°23'0 0.0
2014-Oct-17 20:33N 47°38' W 122°23'0 0.2
2014-Oct-17 20:31N 47°38' W 122°23'0 0.0
2014-Oct-17 19:33N 47°38' W 122°23'0 0.0
2014-Oct-17 19:31N 47°38' W 122°23'0 0.0
2014-Oct-17 18:33N 47°38' W 122°23'0 0.1
2014-Oct-17 18:31N 47°38' W 122°23'0 0.0
2014-Oct-17 17:33N 47°38' W 122°23'0 0.0
2014-Oct-17 17:31N 47°38' W 122°23'0 0.0
2014-Oct-17 16:33N 47°38' W 122°23'0 0.3
2014-Oct-17 16:31N 47°38' W 122°23'0 0.2
2014-Oct-17 15:33N 47°38' W 122°23'0 0.0
2014-Oct-17 15:31N 47°38' W 122°23'0 0.0
2014-Oct-17 14:33N 47°38' W 122°23'0 0.0
2014-Oct-17 14:31N 47°38' W 122°23'0 0.0
2014-Oct-17 13:33N 47°38' W 122°23'0 0.0
2014-Oct-17 13:31N 47°38' W 122°23'0 0.0
2014-Oct-17 12:33N 47°38' W 122°23'0 0.0
2014-Oct-17 12:26N 47°38' W 122°23'0 0.0
2014-Oct-17 11:33N 47°38' W 122°23'0 0.0
2014-Oct-17 11:30N 47°38' W 122°23'0 0.0
2014-Oct-17 10:33N 47°38' W 122°23'0 0.1
2014-Oct-17 10:30N 47°38' W 122°23'0 0.0
2014-Oct-17 09:33N 47°38' W 122°23'0 0.0
2014-Oct-17 09:30N 47°38' W 122°23'0 0.0
2014-Oct-17 08:33N 47°38' W 122°23'0 0.1
2014-Oct-17 08:29N 47°38' W 122°23'0 0.0
2014-Oct-17 07:33N 47°38' W 122°23'0 0.0
2014-Oct-17 07:03N 47°38' W 122°23'0 0.0
2014-Oct-17 06:32N 47°38' W 122°23'0 0.0
2014-Oct-17 06:32N 47°38' W 122°23'0 0.0
2014-Oct-17 05:32N 47°38' W 122°23'3 2.9
2014-Oct-17 04:33N 47°40' W 122°26'1 7.9
2014-Oct-17 04:29N 47°40' W 122°27'7 8.0
2014-Oct-17 03:33N 47°47' W 122°24'1 7.8
2014-Oct-17 03:29N 47°48' W 122°24'8 8.3
2014-Oct-17 02:33N 47°55' W 122°21'8 7.8
2014-Oct-17 01:32N 48°03' W 122°24'9 7.9
2014-Oct-17 00:26N 48°10' W 122°32'8 7.9
2014-Oct-16 23:28N 48°17' W 122°30'7 6.7
2014-Oct-16 22:21N 48°25' W 122°34'0 0.0
2014-Oct-16 18:07N 48°25' W 122°34'0 0.0
2014-Oct-16 11:21N 48°24' W 122°34'0 0.0
2014-Oct-16 10:42N 48°24' W 122°34'0 0.0
2014-Oct-16 06:18N 48°24' W 122°34'0 0.0
2014-Oct-16 04:30N 48°24' W 122°34'0 0.0
2014-Oct-16 03:10N 48°24' W 122°34'3 5.0
2014-Oct-16 02:31N 48°21' W 122°33'7 6.5
2014-Oct-16 01:28N 48°14' W 122°33'9 7.8
2014-Oct-16 00:17N 48°06' W 122°28'6 8.3
2014-Oct-15 23:32N 48°01' W 122°21'6 8.1
2014-Oct-15 22:46N 47°55' W 122°21'2 8.3
2014-Oct-15 22:33N 47°53' W 122°22'4 8.6
2014-Oct-15 22:06N 47°50' W 122°24'5 9.3
2014-Oct-15 21:33N 47°45' W 122°25'0 9.5
2014-Oct-15 21:31N 47°44' W 122°25'7 7.1
2014-Oct-15 20:33N 47°38' W 122°23'0 0.0
2014-Oct-15 20:31N 47°38' W 122°23'0 0.0
2014-Oct-15 19:33N 47°38' W 122°23'0 0.0
2014-Oct-15 19:31N 47°38' W 122°23'0 0.0
2014-Oct-15 18:33N 47°38' W 122°23'0 0.0
2014-Oct-15 18:31N 47°38' W 122°23'0 0.2
2014-Oct-15 17:33N 47°38' W 122°23'0 0.0
2014-Oct-15 17:31N 47°38' W 122°23'0 0.0
2014-Oct-15 16:29N 47°38' W 122°23'0 0.1
2014-Oct-15 16:26N 47°38' W 122°23'0 0.0
2014-Oct-15 15:33N 47°38' W 122°23'0 0.0
2014-Oct-15 15:30N 47°38' W 122°23'0 0.0
2014-Oct-15 14:33N 47°38' W 122°23'0 0.0
2014-Oct-15 14:30N 47°38' W 122°23'0 0.0
2014-Oct-15 13:33N 47°38' W 122°23'0 0.0
2014-Oct-15 13:30N 47°38' W 122°23'0 0.0
2014-Oct-15 12:33N 47°38' W 122°23'0 0.0
2014-Oct-15 12:30N 47°38' W 122°23'0 0.0
2014-Oct-15 11:33N 47°38' W 122°23'0 0.1
2014-Oct-15 11:30N 47°38' W 122°23'0 0.0
2014-Oct-15 10:33N 47°38' W 122°23'0 0.0
2014-Oct-15 10:29N 47°38' W 122°23'0 0.0
2014-Oct-15 09:33N 47°38' W 122°23'0 0.0
2014-Oct-15 08:33N 47°38' W 122°23'0 0.0
2014-Oct-15 08:09N 47°38' W 122°23'0 0.0
2014-Oct-15 07:33N 47°38' W 122°23'0 0.0
2014-Oct-15 07:29N 47°38' W 122°23'0 0.0
2014-Oct-15 06:34N 47°38' W 122°23'0 0.0
2014-Oct-15 06:33N 47°38' W 122°23'2 3.3
2014-Oct-15 05:58N 47°39' W 122°26'3 7.3
2014-Oct-15 05:33N 47°42' W 122°25'8 7.7
2014-Oct-15 04:33N 47°49' W 122°24'0 0.0
2014-Oct-15 04:33N 47°49' W 122°24'8 8.3
2014-Oct-15 03:33N 47°57' W 122°20'8 7.8
2014-Oct-15 02:33N 48°04' W 122°25'8 8.0
2014-Oct-15 01:33N 48°11' W 122°32'8 8.1
2014-Oct-15 00:31N 48°19' W 122°31'6 0.5
2014-Oct-14 12:31N 48°24' W 122°34'0 0.0
2014-Oct-14 11:31N 48°24' W 122°34'0 0.0
2014-Oct-14 10:33N 48°24' W 122°34'0 0.0
2014-Oct-14 08:32N 48°24' W 122°34'0 0.0
2014-Oct-14 06:32N 48°24' W 122°34'0 0.0
2014-Oct-14 05:08N 48°24' W 122°34'0 0.1
2014-Oct-14 04:21N 48°24' W 122°34'0 0.0
2014-Oct-14 02:27N 48°24' W 122°34'5 5.6
2014-Oct-14 01:32N 48°20' W 122°31'10 8.6
2014-Oct-14 00:25N 48°10' W 122°32'8 8.7
2014-Oct-13 23:33N 48°04' W 122°25'8 8.3
2014-Oct-13 22:33N 47°56' W 122°21'4 8.4
2014-Oct-13 22:06N 47°53' W 122°22'5 8.8
2014-Oct-13 21:33N 47°48' W 122°24'0 8.7
2014-Oct-13 21:31N 47°48' W 122°25'9 9.2
2014-Oct-13 20:33N 47°39' W 122°26'0 8.6
2014-Oct-13 20:31N 47°39' W 122°26'2 2.3
2014-Oct-13 19:33N 47°38' W 122°23'0 0.1
2014-Oct-13 19:31N 47°38' W 122°23'0 0.0
2014-Oct-13 18:33N 47°38' W 122°23'0 0.0
2014-Oct-13 18:30N 47°38' W 122°23'0 0.0
2014-Oct-13 17:14N 47°38' W 122°23'0 0.0
2014-Oct-13 17:14N 47°38' W 122°23'0 0.0
2014-Oct-13 16:33N 47°38' W 122°23'0 0.1
2014-Oct-13 16:30N 47°38' W 122°23'0 0.0
2014-Oct-13 15:33N 47°38' W 122°23'0 0.0
2014-Oct-13 15:14N 47°38' W 122°23'0 0.0
2014-Oct-13 14:33N 47°38' W 122°23'0 0.0
2014-Oct-13 14:29N 47°38' W 122°23'0 0.0
2014-Oct-13 13:33N 47°38' W 122°23'0 0.0
2014-Oct-13 13:29N 47°38' W 122°23'0 0.0
2014-Oct-13 12:33N 47°38' W 122°23'0 0.0
2014-Oct-13 12:29N 47°38' W 122°23'0 0.0
2014-Oct-13 11:33N 47°38' W 122°23'0 0.1
2014-Oct-13 11:29N 47°38' W 122°23'0 0.0
2014-Oct-13 10:33N 47°38' W 122°23'0 0.0
2014-Oct-13 10:28N 47°38' W 122°23'0 0.0
2014-Oct-13 09:33N 47°38' W 122°23'0 0.0
2014-Oct-13 08:33N 47°38' W 122°23'0 0.0
2014-Oct-13 07:39N 47°38' W 122°23'0 0.0
2014-Oct-13 07:33N 47°38' W 122°23'0 0.0
2014-Oct-13 06:59N 47°38' W 122°23'0 0.0
2014-Oct-13 06:33N 47°38' W 122°23'0 0.0
2014-Oct-13 06:29N 47°38' W 122°23'0 0.0
2014-Oct-13 05:59N 47°38' W 122°23'0 0.0
2014-Oct-13 05:33N 47°38' W 122°23'0 0.0
2014-Oct-13 04:32N 47°38' W 122°23'0 0.0
2014-Oct-13 04:23N 47°38' W 122°23'0 0.0
2014-Oct-13 03:33N 47°38' W 122°23'0 0.0
2014-Oct-13 03:33N 47°38' W 122°23'0 0.0
2014-Oct-13 02:21N 47°38' W 122°23'0 0.0
2014-Oct-13 02:06N 47°38' W 122°23'0 0.0
2014-Oct-13 01:33N 47°38' W 122°23'0 0.2
2014-Oct-13 01:31N 47°38' W 122°23'0 0.0
2014-Oct-13 00:33N 47°38' W 122°23'0 0.0
2014-Oct-13 00:31N 47°38' W 122°23'0 0.0
2014-Oct-12 23:33N 47°38' W 122°23'0 0.0
2014-Oct-12 23:31N 47°38' W 122°23'0 0.0
2014-Oct-12 22:33N 47°38' W 122°23'0 0.0
2014-Oct-12 22:30N 47°38' W 122°23'0 0.0
2014-Oct-12 21:32N 47°38' W 122°23'0 0.0
2014-Oct-12 20:58N 47°38' W 122°23'0 0.0
2014-Oct-12 20:33N 47°38' W 122°23'0 0.0
2014-Oct-12 20:28N 47°38' W 122°23'0 0.0
2014-Oct-12 19:29N 47°38' W 122°23'0 0.0
2014-Oct-12 19:27N 47°38' W 122°23'0 0.0
2014-Oct-12 18:33N 47°38' W 122°23'0 0.0
2014-Oct-12 18:33N 47°38' W 122°23'0 0.0
2014-Oct-12 17:33N 47°38' W 122°23'0 0.0
2014-Oct-12 17:33N 47°38' W 122°23'0 0.0
2014-Oct-12 16:33N 47°38' W 122°23'0 0.0
2014-Oct-12 16:33N 47°38' W 122°23'0 0.0
2014-Oct-12 15:33N 47°38' W 122°23'0 0.0
2014-Oct-12 15:32N 47°38' W 122°23'0 0.0
2014-Oct-12 14:33N 47°38' W 122°23'0 0.0
2014-Oct-12 14:32N 47°38' W 122°23'0 0.0
2014-Oct-12 13:33N 47°38' W 122°23'0 0.0
2014-Oct-12 13:32N 47°38' W 122°23'0 0.0
2014-Oct-12 12:33N 47°38' W 122°23'0 0.3
2014-Oct-12 12:32N 47°38' W 122°23'0 0.0
2014-Oct-12 11:33N 47°38' W 122°23'0 0.0
2014-Oct-12 11:32N 47°38' W 122°23'0 0.0
2014-Oct-12 10:33N 47°38' W 122°23'0 0.0
2014-Oct-12 09:33N 47°38' W 122°23'0 0.0
2014-Oct-12 09:25N 47°38' W 122°23'0 0.0
2014-Oct-12 08:33N 47°38' W 122°23'0 0.0
2014-Oct-12 08:30N 47°38' W 122°23'0 0.0
2014-Oct-12 07:33N 47°38' W 122°23'0 0.0
2014-Oct-12 07:29N 47°38' W 122°23'0 0.0
2014-Oct-12 06:33N 47°38' W 122°23'0 0.1
2014-Oct-12 06:29N 47°38' W 122°23'0 0.0
2014-Oct-12 05:59N 47°38' W 122°23'0 0.0
2014-Oct-12 05:33N 47°38' W 122°23'0 0.0
2014-Oct-12 04:33N 47°38' W 122°23'0 0.0
2014-Oct-12 04:29N 47°38' W 122°23'0 0.0
2014-Oct-12 03:33N 47°38' W 122°23'0 0.0
2014-Oct-12 03:29N 47°38' W 122°23'0 0.0
2014-Oct-12 02:33N 47°38' W 122°23'0 0.1
2014-Oct-12 02:29N 47°38' W 122°23'0 0.0
2014-Oct-12 01:11N 47°38' W 122°23'0 0.0
2014-Oct-12 00:57N 47°38' W 122°23'0 0.0
2014-Oct-12 00:25N 47°38' W 122°23'0 0.0
2014-Oct-11 23:45N 47°38' W 122°23'0 0.0
2014-Oct-11 23:33N 47°38' W 122°23'0 0.0
2014-Oct-11 23:30N 47°38' W 122°23'0 0.0
2014-Oct-11 22:33N 47°38' W 122°23'0 0.0
2014-Oct-11 22:30N 47°38' W 122°23'0 0.0
2014-Oct-11 21:33N 47°38' W 122°23'0 0.0
2014-Oct-11 21:30N 47°38' W 122°23'0 0.0
2014-Oct-11 20:33N 47°38' W 122°23'0 0.0
2014-Oct-11 20:30N 47°38' W 122°23'0 0.0
2014-Oct-11 19:33N 47°38' W 122°23'0 0.0
2014-Oct-11 19:30N 47°38' W 122°23'0 0.0
2014-Oct-11 18:33N 47°38' W 122°23'0 0.0
2014-Oct-11 18:29N 47°38' W 122°23'0 0.0
2014-Oct-11 17:33N 47°38' W 122°23'0 0.1
2014-Oct-11 17:30N 47°38' W 122°23'0 0.0
2014-Oct-11 16:33N 47°38' W 122°23'0 0.0
2014-Oct-11 16:30N 47°38' W 122°23'0 0.0
2014-Oct-11 15:33N 47°38' W 122°23'0 0.0
2014-Oct-11 15:29N 47°38' W 122°23'0 0.0
2014-Oct-11 14:33N 47°38' W 122°23'0 0.0
2014-Oct-11 14:29N 47°38' W 122°23'0 0.0
2014-Oct-11 13:33N 47°38' W 122°23'0 0.0
2014-Oct-11 13:29N 47°38' W 122°23'0 0.0
2014-Oct-11 12:33N 47°38' W 122°23'0 0.1
2014-Oct-11 12:29N 47°38' W 122°23'0 0.0
2014-Oct-11 11:33N 47°38' W 122°23'0 0.0
2014-Oct-11 11:33N 47°38' W 122°23'0 0.0
2014-Oct-11 10:33N 47°38' W 122°23'0 0.0
2014-Oct-11 10:33N 47°38' W 122°23'0 0.0
2014-Oct-11 09:33N 47°38' W 122°23'0 0.6
2014-Oct-11 09:32N 47°38' W 122°23'0 0.0
2014-Oct-11 08:33N 47°38' W 122°23'0 0.1
2014-Oct-11 08:27N 47°38' W 122°23'0 0.0
2014-Oct-11 07:33N 47°38' W 122°23'0 0.3
2014-Oct-11 07:32N 47°38' W 122°23'0 0.0
2014-Oct-11 06:33N 47°38' W 122°23'0 0.0
2014-Oct-11 06:32N 47°38' W 122°23'0 0.0
2014-Oct-11 05:57N 47°38' W 122°23'0 0.0
2014-Oct-11 05:33N 47°38' W 122°23'0 0.0
2014-Oct-11 04:33N 47°38' W 122°23'0 0.0
2014-Oct-11 04:32N 47°38' W 122°23'0 0.0
2014-Oct-11 03:33N 47°38' W 122°23'0 0.0
2014-Oct-11 03:32N 47°38' W 122°23'0 0.0
2014-Oct-11 02:33N 47°38' W 122°23'0 0.0
2014-Oct-11 02:32N 47°38' W 122°23'7 6.8
2014-Oct-11 01:33N 47°35' W 122°32'0 3.1
2014-Oct-11 01:32N 47°35' W 122°32'0 0.1
2014-Oct-11 00:33N 47°35' W 122°32'1 6.3
2014-Oct-11 00:26N 47°34' W 122°31'7 8.0
2014-Oct-10 23:33N 47°27' W 122°31'0 8.3
2014-Oct-10 23:31N 47°27' W 122°31'8 7.9
2014-Oct-10 22:33N 47°19' W 122°33'5 5.4
2014-Oct-10 21:33N 47°14' W 122°35'8 7.5
2014-Oct-10 20:30N 47°10' W 122°45'7 7.3
2014-Oct-10 19:33N 47°08' W 122°55'  
Track history (hours):
 
Tides and Currents Weather Stations Pressure Air Temp Water Temp Dewpoint Dewpoint Depression Visibility Wind Speed Wind Dir Waves Ship Positions

F/V Harvestor

Owner: F/V HARVESTOR INC., EDMONDS, WA. More information available from US FCC via Universal Licensing System and Coast Guard Vessel Documentation Center.

Last reported at 2014-Oct-20 12:33 UTC. Time now 2014-Oct-20 13:16 UTC.
Position N 47°38' W 122°23'.

Length 40 m.

Type: Fishing. MMSI: 367083650.

Date/timePositionNaut miles runAvg speedWind from/ knotsBaromVisibWave heightAir tempDewpointWater temp
2014-Oct-20 12:33N 47°38' W 122°23'0 0.0
2014-Oct-20 11:33N 47°38' W 122°23'0 0.0
2014-Oct-20 10:33N 47°38' W 122°23'0 0.0
2014-Oct-20 09:33N 47°38' W 122°23'0 0.0
2014-Oct-20 08:33N 47°38' W 122°23'0 0.0
2014-Oct-20 08:21N 47°38' W 122°23'0 0.0
2014-Oct-20 07:33N 47°38' W 122°23'0 0.0
2014-Oct-20 07:19N 47°38' W 122°23'0 0.0
2014-Oct-20 06:28N 47°38' W 122°23'0 0.0
2014-Oct-20 06:28N 47°38' W 122°23'0 0.0
2014-Oct-20 05:58N 47°38' W 122°23'0 0.0
2014-Oct-20 05:33N 47°38' W 122°23'0 0.0
2014-Oct-20 04:33N 47°38' W 122°23'0 0.0
2014-Oct-20 04:33N 47°38' W 122°23'0 0.0
2014-Oct-20 03:33N 47°38' W 122°23'0 0.0
2014-Oct-20 03:33N 47°38' W 122°23'0 0.0
2014-Oct-20 02:33N 47°38' W 122°23'0 0.0
2014-Oct-20 02:33N 47°38' W 122°23'0 0.0
2014-Oct-20 01:33N 47°38' W 122°23'0 0.0
2014-Oct-20 01:33N 47°38' W 122°23'0 0.0
2014-Oct-20 00:33N 47°38' W 122°23'0 0.0
2014-Oct-20 00:33N 47°38' W 122°23'0 0.0
2014-Oct-19 23:33N 47°38' W 122°23'0 0.0
2014-Oct-19 23:33N 47°38' W 122°23'4 3.5
2014-Oct-19 22:33N 47°35' W 122°27'0 7.5
2014-Oct-19 22:33N 47°35' W 122°27'4 4.1
2014-Oct-19 21:33N 47°34' W 122°33'0 0.0
2014-Oct-19 21:32N 47°34' W 122°33'0 0.0
2014-Oct-19 20:33N 47°34' W 122°33'0 0.3
2014-Oct-19 20:32N 47°34' W 122°33'0 0.0
2014-Oct-19 19:33N 47°34' W 122°33'0 0.0
2014-Oct-19 19:30N 47°34' W 122°33'0 0.0
2014-Oct-19 18:33N 47°34' W 122°33'0 0.0
2014-Oct-19 18:29N 47°34' W 122°33'0 0.0
2014-Oct-19 17:33N 47°34' W 122°33'0 0.0
2014-Oct-19 17:18N 47°34' W 122°33'0 0.0
2014-Oct-19 16:33N 47°34' W 122°33'0 0.0
2014-Oct-19 16:31N 47°34' W 122°33'0 0.0
2014-Oct-19 15:33N 47°34' W 122°33'0 0.0
2014-Oct-19 15:31N 47°34' W 122°33'0 0.0
2014-Oct-19 14:33N 47°34' W 122°33'0 0.2
2014-Oct-19 14:31N 47°34' W 122°33'6 5.9
2014-Oct-19 13:33N 47°37' W 122°25'0 7.3
2014-Oct-19 13:31N 47°37' W 122°25'1 1.5
2014-Oct-19 12:33N 47°38' W 122°23'0 0.0
2014-Oct-19 12:31N 47°38' W 122°23'0 0.0
2014-Oct-19 11:33N 47°38' W 122°23'0 0.0
2014-Oct-19 11:31N 47°38' W 122°23'0 0.0
2014-Oct-19 10:33N 47°38' W 122°23'0 0.1
2014-Oct-19 10:31N 47°38' W 122°23'0 0.0
2014-Oct-19 09:33N 47°38' W 122°23'0 0.0
2014-Oct-19 09:31N 47°38' W 122°23'0 0.0
2014-Oct-19 08:33N 47°38' W 122°23'0 0.0
2014-Oct-19 08:31N 47°38' W 122°23'0 0.0
2014-Oct-19 07:33N 47°38' W 122°23'0 0.0
2014-Oct-19 07:30N 47°38' W 122°23'0 0.0
2014-Oct-19 06:33N 47°38' W 122°23'0 0.0
2014-Oct-19 06:30N 47°38' W 122°23'0 0.0
2014-Oct-19 06:05N 47°38' W 122°23'0 0.0
2014-Oct-19 05:33N 47°38' W 122°23'0 0.0
2014-Oct-19 04:33N 47°38' W 122°23'0 0.1
2014-Oct-19 04:30N 47°38' W 122°23'0 0.0
2014-Oct-19 03:33N 47°38' W 122°23'0 0.1
2014-Oct-19 03:30N 47°38' W 122°23'0 0.0
2014-Oct-19 02:33N 47°38' W 122°23'0 0.1
2014-Oct-19 02:30N 47°38' W 122°23'0 0.0
2014-Oct-19 01:33N 47°38' W 122°23'0 0.1
2014-Oct-19 01:30N 47°38' W 122°23'0 0.0
2014-Oct-19 00:33N 47°38' W 122°23'0 0.1
2014-Oct-19 00:29N 47°38' W 122°23'0 0.0
2014-Oct-18 23:33N 47°38' W 122°23'0 0.1
2014-Oct-18 23:30N 47°38' W 122°23'0 0.0
2014-Oct-18 22:33N 47°38' W 122°23'0 0.0
2014-Oct-18 22:29N 47°38' W 122°23'0 0.0
2014-Oct-18 21:33N 47°38' W 122°23'0 0.0
2014-Oct-18 21:29N 47°38' W 122°23'0 0.0
2014-Oct-18 20:33N 47°38' W 122°23'0 0.0
2014-Oct-18 20:29N 47°38' W 122°23'0 0.0
2014-Oct-18 19:33N 47°38' W 122°23'0 0.2
2014-Oct-18 19:29N 47°38' W 122°23'0 0.0
2014-Oct-18 18:33N 47°38' W 122°23'0 0.1
2014-Oct-18 18:28N 47°38' W 122°23'0 0.0
2014-Oct-18 17:33N 47°38' W 122°23'0 0.1
2014-Oct-18 17:28N 47°38' W 122°23'0 0.0
2014-Oct-18 16:33N 47°38' W 122°23'0 0.0
2014-Oct-18 16:28N 47°38' W 122°23'0 0.0
2014-Oct-18 15:33N 47°38' W 122°23'0 0.0
2014-Oct-18 15:29N 47°38' W 122°23'0 0.0
2014-Oct-18 14:33N 47°38' W 122°23'0 0.1
2014-Oct-18 14:29N 47°38' W 122°23'0 0.0
2014-Oct-18 13:33N 47°38' W 122°23'0 0.0
2014-Oct-18 13:33N 47°38' W 122°23'0 0.0
2014-Oct-18 12:33N 47°38' W 122°23'0 0.0
2014-Oct-18 12:33N 47°38' W 122°23'0 0.0
2014-Oct-18 11:33N 47°38' W 122°23'0 0.0
2014-Oct-18 11:33N 47°38' W 122°23'0 0.0
2014-Oct-18 10:33N 47°38' W 122°23'0 0.0
2014-Oct-18 10:23N 47°38' W 122°23'0 0.0
2014-Oct-18 09:33N 47°38' W 122°23'0 0.0
2014-Oct-18 09:32N 47°38' W 122°23'0 0.0
2014-Oct-18 08:33N 47°38' W 122°23'0 0.3
2014-Oct-18 08:32N 47°38' W 122°23'0 0.0
2014-Oct-18 07:33N 47°38' W 122°23'0 0.3
2014-Oct-18 07:32N 47°38' W 122°23'0 0.0
2014-Oct-18 06:33N 47°38' W 122°23'0 0.2
2014-Oct-18 06:32N 47°38' W 122°23'0 0.0
2014-Oct-18 05:57N 47°38' W 122°23'0 0.0
2014-Oct-18 05:33N 47°38' W 122°23'0 0.0
2014-Oct-18 04:33N 47°38' W 122°23'0 0.0
2014-Oct-18 04:32N 47°38' W 122°23'0 0.0
2014-Oct-18 03:33N 47°38' W 122°23'0 0.2
2014-Oct-18 03:32N 47°38' W 122°23'0 0.0
2014-Oct-18 02:33N 47°38' W 122°23'0 0.0
2014-Oct-18 02:32N 47°38' W 122°23'0 0.0
2014-Oct-18 01:33N 47°38' W 122°23'0 0.0
2014-Oct-18 01:32N 47°38' W 122°23'0 0.0
2014-Oct-18 00:33N 47°38' W 122°23'0 0.2
2014-Oct-18 00:32N 47°38' W 122°23'0 0.0
2014-Oct-17 23:33N 47°38' W 122°23'0 0.2
2014-Oct-17 23:32N 47°38' W 122°23'0 0.0
2014-Oct-17 22:33N 47°38' W 122°23'0 0.2
2014-Oct-17 22:31N 47°38' W 122°23'0 0.0
2014-Oct-17 21:33N 47°38' W 122°23'0 0.0
2014-Oct-17 21:31N 47°38' W 122°23'0 0.0
2014-Oct-17 20:33N 47°38' W 122°23'0 0.2
2014-Oct-17 20:31N 47°38' W 122°23'0 0.0
2014-Oct-17 19:33N 47°38' W 122°23'0 0.0
2014-Oct-17 19:31N 47°38' W 122°23'0 0.0
2014-Oct-17 18:33N 47°38' W 122°23'0 0.1
2014-Oct-17 18:31N 47°38' W 122°23'0 0.0
2014-Oct-17 17:33N 47°38' W 122°23'0 0.0
2014-Oct-17 17:31N 47°38' W 122°23'0 0.0
2014-Oct-17 16:33N 47°38' W 122°23'0 0.3
2014-Oct-17 16:31N 47°38' W 122°23'0 0.2
2014-Oct-17 15:33N 47°38' W 122°23'0 0.0
2014-Oct-17 15:31N 47°38' W 122°23'0 0.0
2014-Oct-17 14:33N 47°38' W 122°23'0 0.0
2014-Oct-17 14:31N 47°38' W 122°23'0 0.0
2014-Oct-17 13:33N 47°38' W 122°23'0 0.0
2014-Oct-17 13:31N 47°38' W 122°23'0 0.0
2014-Oct-17 12:33N 47°38' W 122°23'0 0.0
2014-Oct-17 12:26N 47°38' W 122°23'0 0.0
2014-Oct-17 11:33N 47°38' W 122°23'0 0.0
2014-Oct-17 11:30N 47°38' W 122°23'0 0.0
2014-Oct-17 10:33N 47°38' W 122°23'0 0.1
2014-Oct-17 10:30N 47°38' W 122°23'0 0.0
2014-Oct-17 09:33N 47°38' W 122°23'0 0.0
2014-Oct-17 09:30N 47°38' W 122°23'0 0.0
2014-Oct-17 08:33N 47°38' W 122°23'0 0.1
2014-Oct-17 08:29N 47°38' W 122°23'0 0.0
2014-Oct-17 07:33N 47°38' W 122°23'0 0.0
2014-Oct-17 07:03N 47°38' W 122°23'0 0.0
2014-Oct-17 06:32N 47°38' W 122°23'0 0.0
2014-Oct-17 06:32N 47°38' W 122°23'0 0.0
2014-Oct-17 05:32N 47°38' W 122°23'3 2.9
2014-Oct-17 04:33N 47°40' W 122°26'1 7.9
2014-Oct-17 04:29N 47°40' W 122°27'7 8.0
2014-Oct-17 03:33N 47°47' W 122°24'1 7.8
2014-Oct-17 03:29N 47°48' W 122°24'8 8.3
2014-Oct-17 02:33N 47°55' W 122°21'8 7.8
2014-Oct-17 01:32N 48°03' W 122°24'9 7.9
2014-Oct-17 00:26N 48°10' W 122°32'8 7.9
2014-Oct-16 23:28N 48°17' W 122°30'7 6.7
2014-Oct-16 22:21N 48°25' W 122°34'0 0.0
2014-Oct-16 18:07N 48°25' W 122°34'0 0.0
2014-Oct-16 11:21N 48°24' W 122°34'0 0.0
2014-Oct-16 10:42N 48°24' W 122°34'0 0.0
2014-Oct-16 06:18N 48°24' W 122°34'0 0.0
2014-Oct-16 04:30N 48°24' W 122°34'0 0.0
2014-Oct-16 03:10N 48°24' W 122°34'3 5.0
2014-Oct-16 02:31N 48°21' W 122°33'7 6.5
2014-Oct-16 01:28N 48°14' W 122°33'9 7.8
2014-Oct-16 00:17N 48°06' W 122°28'6 8.3
2014-Oct-15 23:32N 48°01' W 122°21'6 8.1
2014-Oct-15 22:46N 47°55' W 122°21'2 8.3
2014-Oct-15 22:33N 47°53' W 122°22'4 8.6
2014-Oct-15 22:06N 47°50' W 122°24'5 9.3
2014-Oct-15 21:33N 47°45' W 122°25'0 9.5
2014-Oct-15 21:31N 47°44' W 122°25'7 7.1
2014-Oct-15 20:33N 47°38' W 122°23'0 0.0
2014-Oct-15 20:31N 47°38' W 122°23'0 0.0
2014-Oct-15 19:33N 47°38' W 122°23'0 0.0
2014-Oct-15 19:31N 47°38' W 122°23'0 0.0
2014-Oct-15 18:33N 47°38' W 122°23'0 0.0
2014-Oct-15 18:31N 47°38' W 122°23'0 0.2
2014-Oct-15 17:33N 47°38' W 122°23'0 0.0
2014-Oct-15 17:31N 47°38' W 122°23'0 0.0
2014-Oct-15 16:29N 47°38' W 122°23'0 0.1
2014-Oct-15 16:26N 47°38' W 122°23'0 0.0
2014-Oct-15 15:33N 47°38' W 122°23'0 0.0
2014-Oct-15 15:30N 47°38' W 122°23'0 0.0
2014-Oct-15 14:33N 47°38' W 122°23'0 0.0
2014-Oct-15 14:30N 47°38' W 122°23'0 0.0
2014-Oct-15 13:33N 47°38' W 122°23'0 0.0
2014-Oct-15 13:30N 47°38' W 122°23'0 0.0
2014-Oct-15 12:33N 47°38' W 122°23'0 0.0
2014-Oct-15 12:30N 47°38' W 122°23'0 0.0
2014-Oct-15 11:33N 47°38' W 122°23'0 0.1
2014-Oct-15 11:30N 47°38' W 122°23'0 0.0
2014-Oct-15 10:33N 47°38' W 122°23'0 0.0
2014-Oct-15 10:29N 47°38' W 122°23'0 0.0
2014-Oct-15 09:33N 47°38' W 122°23'0 0.0
2014-Oct-15 08:33N 47°38' W 122°23'0 0.0
2014-Oct-15 08:09N 47°38' W 122°23'0 0.0
2014-Oct-15 07:33N 47°38' W 122°23'0 0.0
2014-Oct-15 07:29N 47°38' W 122°23'0 0.0
2014-Oct-15 06:34N 47°38' W 122°23'0 0.0
2014-Oct-15 06:33N 47°38' W 122°23'2 3.3
2014-Oct-15 05:58N 47°39' W 122°26'3 7.3
2014-Oct-15 05:33N 47°42' W 122°25'8 7.7
2014-Oct-15 04:33N 47°49' W 122°24'0 0.0
2014-Oct-15 04:33N 47°49' W 122°24'8 8.3
2014-Oct-15 03:33N 47°57' W 122°20'8 7.8
2014-Oct-15 02:33N 48°04' W 122°25'8 8.0
2014-Oct-15 01:33N 48°11' W 122°32'8 8.1
2014-Oct-15 00:31N 48°19' W 122°31'6 0.5
2014-Oct-14 12:31N 48°24' W 122°34'0 0.0
2014-Oct-14 11:31N 48°24' W 122°34'0 0.0
2014-Oct-14 10:33N 48°24' W 122°34'0 0.0
2014-Oct-14 08:32N 48°24' W 122°34'0 0.0
2014-Oct-14 06:32N 48°24' W 122°34'0 0.0
2014-Oct-14 05:08N 48°24' W 122°34'0 0.1
2014-Oct-14 04:21N 48°24' W 122°34'0 0.0
2014-Oct-14 02:27N 48°24' W 122°34'5 5.6
2014-Oct-14 01:32N 48°20' W 122°31'10 8.6
2014-Oct-14 00:25N 48°10' W 122°32'8 8.7
2014-Oct-13 23:33N 48°04' W 122°25'8 8.3
2014-Oct-13 22:33N 47°56' W 122°21'4 8.4
2014-Oct-13 22:06N 47°53' W 122°22'5 8.8
2014-Oct-13 21:33N 47°48' W 122°24'0 8.7
2014-Oct-13 21:31N 47°48' W 122°25'9 9.2
2014-Oct-13 20:33N 47°39' W 122°26'0 8.6
2014-Oct-13 20:31N 47°39' W 122°26'2 2.3
2014-Oct-13 19:33N 47°38' W 122°23'0 0.1
2014-Oct-13 19:31N 47°38' W 122°23'0 0.0
2014-Oct-13 18:33N 47°38' W 122°23'0 0.0
2014-Oct-13 18:30N 47°38' W 122°23'0 0.0
2014-Oct-13 17:14N 47°38' W 122°23'0 0.0
2014-Oct-13 17:14N 47°38' W 122°23'0 0.0
2014-Oct-13 16:33N 47°38' W 122°23'0 0.1
2014-Oct-13 16:30N 47°38' W 122°23'0 0.0
2014-Oct-13 15:33N 47°38' W 122°23'0 0.0
2014-Oct-13 15:14N 47°38' W 122°23'0 0.0
2014-Oct-13 14:33N 47°38' W 122°23'0 0.0
2014-Oct-13 14:29N 47°38' W 122°23'0 0.0
2014-Oct-13 13:33N 47°38' W 122°23'0 0.0
2014-Oct-13 13:29N 47°38' W 122°23'0 0.0
2014-Oct-13 12:33N 47°38' W 122°23'0 0.0
2014-Oct-13 12:29N 47°38' W 122°23'0 0.0
2014-Oct-13 11:33N 47°38' W 122°23'0 0.1
2014-Oct-13 11:29N 47°38' W 122°23'0 0.0
2014-Oct-13 10:33N 47°38' W 122°23'0 0.0
2014-Oct-13 10:28N 47°38' W 122°23'0 0.0
2014-Oct-13 09:33N 47°38' W 122°23'0 0.0
2014-Oct-13 08:33N 47°38' W 122°23'0 0.0
2014-Oct-13 07:39N 47°38' W 122°23'0 0.0
2014-Oct-13 07:33N 47°38' W 122°23'0 0.0
2014-Oct-13 06:59N 47°38' W 122°23'0 0.0
2014-Oct-13 06:33N 47°38' W 122°23'0 0.0
2014-Oct-13 06:29N 47°38' W 122°23'0 0.0
2014-Oct-13 05:59N 47°38' W 122°23'0 0.0
2014-Oct-13 05:33N 47°38' W 122°23'0 0.0
2014-Oct-13 04:32N 47°38' W 122°23'0 0.0
2014-Oct-13 04:23N 47°38' W 122°23'0 0.0
2014-Oct-13 03:33N 47°38' W 122°23'0 0.0
2014-Oct-13 03:33N 47°38' W 122°23'0 0.0
2014-Oct-13 02:21N 47°38' W 122°23'0 0.0
2014-Oct-13 02:06N 47°38' W 122°23'0 0.0
2014-Oct-13 01:33N 47°38' W 122°23'0 0.2
2014-Oct-13 01:31N 47°38' W 122°23'0 0.0
2014-Oct-13 00:33N 47°38' W 122°23'0 0.0
2014-Oct-13 00:31N 47°38' W 122°23'0 0.0
2014-Oct-12 23:33N 47°38' W 122°23'0 0.0
2014-Oct-12 23:31N 47°38' W 122°23'0 0.0
2014-Oct-12 22:33N 47°38' W 122°23'0 0.0
2014-Oct-12 22:30N 47°38' W 122°23'0 0.0
2014-Oct-12 21:32N 47°38' W 122°23'0 0.0
2014-Oct-12 20:58N 47°38' W 122°23'0 0.0
2014-Oct-12 20:33N 47°38' W 122°23'0 0.0
2014-Oct-12 20:28N 47°38' W 122°23'0 0.0
2014-Oct-12 19:29N 47°38' W 122°23'0 0.0
2014-Oct-12 19:27N 47°38' W 122°23'0 0.0
2014-Oct-12 18:33N 47°38' W 122°23'0 0.0
2014-Oct-12 18:33N 47°38' W 122°23'0 0.0
2014-Oct-12 17:33N 47°38' W 122°23'0 0.0
2014-Oct-12 17:33N 47°38' W 122°23'0 0.0
2014-Oct-12 16:33N 47°38' W 122°23'0 0.0
2014-Oct-12 16:33N 47°38' W 122°23'0 0.0
2014-Oct-12 15:33N 47°38' W 122°23'0 0.0
2014-Oct-12 15:32N 47°38' W 122°23'0 0.0
2014-Oct-12 14:33N 47°38' W 122°23'0 0.0
2014-Oct-12 14:32N 47°38' W 122°23'0 0.0
2014-Oct-12 13:33N 47°38' W 122°23'0 0.0
2014-Oct-12 13:32N 47°38' W 122°23'0 0.0
2014-Oct-12 12:33N 47°38' W 122°23'0 0.3
2014-Oct-12 12:32N 47°38' W 122°23'0 0.0
2014-Oct-12 11:33N 47°38' W 122°23'0 0.0
2014-Oct-12 11:32N 47°38' W 122°23'0 0.0
2014-Oct-12 10:33N 47°38' W 122°23'0 0.0
2014-Oct-12 09:33N 47°38' W 122°23'0 0.0
2014-Oct-12 09:25N 47°38' W 122°23'0 0.0
2014-Oct-12 08:33N 47°38' W 122°23'0 0.0
2014-Oct-12 08:30N 47°38' W 122°23'0 0.0
2014-Oct-12 07:33N 47°38' W 122°23'0 0.0
2014-Oct-12 07:29N 47°38' W 122°23'0 0.0
2014-Oct-12 06:33N 47°38' W 122°23'0 0.1
2014-Oct-12 06:29N 47°38' W 122°23'0 0.0
2014-Oct-12 05:59N 47°38' W 122°23'0 0.0
2014-Oct-12 05:33N 47°38' W 122°23'0 0.0
2014-Oct-12 04:33N 47°38' W 122°23'0 0.0
2014-Oct-12 04:29N 47°38' W 122°23'0 0.0
2014-Oct-12 03:33N 47°38' W 122°23'0 0.0
2014-Oct-12 03:29N 47°38' W 122°23'0 0.0
2014-Oct-12 02:33N 47°38' W 122°23'0 0.1
2014-Oct-12 02:29N 47°38' W 122°23'0 0.0
2014-Oct-12 01:11N 47°38' W 122°23'0 0.0
2014-Oct-12 00:57N 47°38' W 122°23'0 0.0
2014-Oct-12 00:25N 47°38' W 122°23'0 0.0
2014-Oct-11 23:45N 47°38' W 122°23'0 0.0
2014-Oct-11 23:33N 47°38' W 122°23'0 0.0
2014-Oct-11 23:30N 47°38' W 122°23'0 0.0
2014-Oct-11 22:33N 47°38' W 122°23'0 0.0
2014-Oct-11 22:30N 47°38' W 122°23'0 0.0
2014-Oct-11 21:33N 47°38' W 122°23'0 0.0
2014-Oct-11 21:30N 47°38' W 122°23'0 0.0
2014-Oct-11 20:33N 47°38' W 122°23'0 0.0
2014-Oct-11 20:30N 47°38' W 122°23'0 0.0
2014-Oct-11 19:33N 47°38' W 122°23'0 0.0
2014-Oct-11 19:30N 47°38' W 122°23'0 0.0
2014-Oct-11 18:33N 47°38' W 122°23'0 0.0
2014-Oct-11 18:29N 47°38' W 122°23'0 0.0
2014-Oct-11 17:33N 47°38' W 122°23'0 0.1
2014-Oct-11 17:30N 47°38' W 122°23'0 0.0
2014-Oct-11 16:33N 47°38' W 122°23'0 0.0
2014-Oct-11 16:30N 47°38' W 122°23'0 0.0
2014-Oct-11 15:33N 47°38' W 122°23'0 0.0
2014-Oct-11 15:29N 47°38' W 122°23'0 0.0
2014-Oct-11 14:33N 47°38' W 122°23'0 0.0
2014-Oct-11 14:29N 47°38' W 122°23'0 0.0
2014-Oct-11 13:33N 47°38' W 122°23'0 0.0
2014-Oct-11 13:29N 47°38' W 122°23'0 0.0
2014-Oct-11 12:33N 47°38' W 122°23'0 0.1
2014-Oct-11 12:29N 47°38' W 122°23'0 0.0
2014-Oct-11 11:33N 47°38' W 122°23'0 0.0
2014-Oct-11 11:33N 47°38' W 122°23'0 0.0
2014-Oct-11 10:33N 47°38' W 122°23'0 0.0
2014-Oct-11 10:33N 47°38' W 122°23'0 0.0
2014-Oct-11 09:33N 47°38' W 122°23'0 0.6
2014-Oct-11 09:32N 47°38' W 122°23'0 0.0
2014-Oct-11 08:33N 47°38' W 122°23'0 0.1
2014-Oct-11 08:27N 47°38' W 122°23'0 0.0
2014-Oct-11 07:33N 47°38' W 122°23'0 0.3
2014-Oct-11 07:32N 47°38' W 122°23'0 0.0
2014-Oct-11 06:33N 47°38' W 122°23'0 0.0
2014-Oct-11 06:32N 47°38' W 122°23'0 0.0
2014-Oct-11 05:57N 47°38' W 122°23'0 0.0
2014-Oct-11 05:33N 47°38' W 122°23'0 0.0
2014-Oct-11 04:33N 47°38' W 122°23'0 0.0
2014-Oct-11 04:32N 47°38' W 122°23'0 0.0
2014-Oct-11 03:33N 47°38' W 122°23'0 0.0
2014-Oct-11 03:32N 47°38' W 122°23'0 0.0
2014-Oct-11 02:33N 47°38' W 122°23'0 0.0
2014-Oct-11 02:32N 47°38' W 122°23'7 6.8
2014-Oct-11 01:33N 47°35' W 122°32'0 3.1
2014-Oct-11 01:32N 47°35' W 122°32'0 0.1
2014-Oct-11 00:33N 47°35' W 122°32'1 6.3
2014-Oct-11 00:26N 47°34' W 122°31'7 8.0
2014-Oct-10 23:33N 47°27' W 122°31'0 8.3
2014-Oct-10 23:31N 47°27' W 122°31'8 7.9
2014-Oct-10 22:33N 47°19' W 122°33'5 5.4
2014-Oct-10 21:33N 47°14' W 122°35'8 7.5
2014-Oct-10 20:30N 47°10' W 122°45'7 7.3
2014-Oct-10 19:33N 47°08' W 122°55'  

Dump ship's entire track history